Bedford, Massachusetts
Current Conditions -  °F | °C
As of 6:12 AM on Friday 24 Oct 2014 (Local Time) from KBED Reporting Station
Haze Haze  
Wind Chill: 45°   Ceiling: 800
Heat Index: 49°   Visibility: 4mi
Dew Point: 48°   Wind: 9mph
Humidity: 97%   Direction: 330°NNW
Pressure: 29.68"   Gusts: NA
Location:  42.49°N, 71.28°W
Report Text: KBED 241012Z AUTO 33008KT 4SM BR BKN008 OVC012 09/09 A2968 RMK AO2 RAE04 CIG 006V010 P0000 T00940089 TSNO
Loading
Personal Weather Stations






























Interactive Weather Map
Tropical Storm Tracking
New forecast layout! Learn more

10-Day Weather Forecast

Advertisements
Track Severe Weather on mobile